Time;durP1;ratioP1;P1;durP2;ratioP2;P2;SDS_P1;SDS_P2;PMS_P1;PMS_P2;Temp;Humidity;BMP_temperature;BMP_pressure;BME280_temperature;BME280_humidity;BME280_pressure;Samples;Min_cycle;Max_cycle;Signal;HPM_P1;HPM_P2
2022/04/27 00:02:17;;;;;;;3.90;2.30;;;;;;;11.31;50.79;101933.13;4972225;28;111128;-45
2022/04/27 00:04:43;;;;;;;2.57;2.10;;;;;;;11.29;51.07;101930.09;4972877;28;97141;-46
2022/04/27 00:07:09;;;;;;;2.90;2.27;;;;;;;11.28;51.16;101931.31;4969684;28;116444;-46
2022/04/27 00:09:35;;;;;;;1.70;1.60;;;;;;;11.26;51.29;101928.25;4971420;28;96820;-46
2022/04/27 00:12:03;;;;;;;3.97;1.80;;;;;;;11.28;51.46;101926.56;4970481;28;97486;-46
2022/04/27 00:14:30;;;;;;;2.90;2.00;;;;;;;11.29;51.38;101936.34;4971162;28;96904;-45
2022/04/27 00:16:56;;;;;;;2.10;1.90;;;;;;;11.32;51.48;101938.16;4968894;28;97639;-46
2022/04/27 00:19:22;;;;;;;1.93;1.83;;;;;;;11.30;51.25;101931.59;4968642;28;98361;-47
2022/04/27 00:21:47;;;;;;;2.30;2.00;;;;;;;11.28;51.39;101934.06;4970259;28;97189;-45
2022/04/27 00:24:12;;;;;;;2.27;1.80;;;;;;;11.23;51.49;101937.44;4970143;28;97515;-47
2022/04/27 00:26:38;;;;;;;1.90;1.80;;;;;;;11.20;51.65;101939.13;4966350;28;127767;-45
2022/04/27 00:29:03;;;;;;;2.20;2.00;;;;;;;11.20;51.60;101938.38;4966990;28;125175;-46
2022/04/27 00:31:31;;;;;;;6.77;2.10;;;;;;;11.19;51.73;101936.84;4971214;28;119330;-46
2022/04/27 00:33:57;;;;;;;2.77;1.93;;;;;;;11.18;51.65;101935.34;4962104;28;97319;-45
2022/04/27 00:36:22;;;;;;;3.70;2.20;;;;;;;11.18;51.67;101941.59;4963183;28;96762;-46
2022/04/27 00:38:47;;;;;;;2.30;1.70;;;;;;;11.16;51.73;101938.53;4966089;28;97681;-46
2022/04/27 00:41:13;;;;;;;1.97;1.87;;;;;;;11.13;51.78;101930.44;4965631;28;115848;-46
2022/04/27 00:43:40;;;;;;;1.83;1.63;;;;;;;11.07;51.97;101935.06;4966213;28;97186;-46
2022/04/27 00:46:07;;;;;;;4.50;2.00;;;;;;;11.10;52.01;101934.88;4946225;28;99451;-47
2022/04/27 00:48:32;;;;;;;2.83;2.00;;;;;;;11.13;52.01;101942.22;4969565;28;97453;-47
2022/04/27 00:51:00;;;;;;;5.30;1.80;;;;;;;11.14;51.95;101945.72;4969217;28;97227;-48
2022/04/27 00:53:26;;;;;;;3.83;2.37;;;;;;;11.12;51.96;101956.44;4965256;28;96915;-45
2022/04/27 00:55:52;;;;;;;2.13;2.03;;;;;;;11.08;52.08;101945.59;4968982;28;96764;-50
2022/04/27 00:58:18;;;;;;;8.30;2.37;;;;;;;11.04;52.37;101947.00;4956670;28;96895;-47
2022/04/27 01:00:43;;;;;;;4.10;1.87;;;;;;;11.02;52.27;101952.97;4968430;28;96888;-46
2022/04/27 01:03:09;;;;;;;2.03;1.93;;;;;;;11.01;52.26;101947.91;4950767;28;97167;-45
2022/04/27 01:05:34;;;;;;;3.17;1.87;;;;;;;10.98;52.25;101949.63;4967233;28;114657;-45
2022/04/27 01:08:00;;;;;;;3.47;2.00;;;;;;;10.94;52.30;101949.00;4966942;28;97324;-46
2022/04/27 01:10:29;;;;;;;3.80;2.30;;;;;;;10.93;52.43;101952.22;4964912;28;97313;-46
2022/04/27 01:12:57;;;;;;;4.20;2.13;;;;;;;10.89;52.48;101962.66;4968318;28;97481;-46
2022/04/27 01:15:33;;;;;;;3.00;2.07;;;;;;;10.89;53.19;101948.88;4968243;28;96866;-47
2022/04/27 01:17:58;;;;;;;4.93;2.50;;;;;;;10.85;52.67;101956.53;4966133;28;97339;-46
2022/04/27 01:20:24;;;;;;;3.43;1.60;;;;;;;10.82;52.67;101958.22;4964952;28;96727;-47
2022/04/27 01:22:49;;;;;;;3.20;2.23;;;;;;;10.80;52.69;101966.19;4967996;28;96929;-45
2022/04/27 01:25:14;;;;;;;6.87;2.60;;;;;;;10.80;52.76;101965.41;4971215;28;97966;-46
2022/04/27 01:27:43;;;;;;;4.40;2.60;;;;;;;10.80;53.03;101971.69;4966720;28;125811;-46
2022/04/27 01:30:10;;;;;;;1.77;1.67;;;;;;;10.75;52.67;101974.28;4968378;28;96916;-46
2022/04/27 01:32:36;;;;;;;5.87;2.50;;;;;;;10.72;52.80;101975.22;4973146;28;96774;-45
2022/04/27 01:35:01;;;;;;;1.87;1.77;;;;;;;10.70;52.80;101972.16;4967838;28;97416;-45
2022/04/27 01:40:10;;;;;;;1.90;1.70;;;;;;;10.62;53.11;101965.44;4868300;28;96763;-46
2022/04/27 01:42:36;;;;;;;4.27;2.50;;;;;;;10.63;53.00;101975.22;4868858;28;97009;-46
2022/04/27 01:45:02;;;;;;;3.23;2.20;;;;;;;10.65;52.85;101970.78;4868020;28;126427;-46
2022/04/27 01:47:28;;;;;;;2.27;2.07;;;;;;;10.63;52.87;101978.75;4866842;28;97436;-46
2022/04/27 01:49:53;;;;;;;5.07;2.67;;;;;;;10.58;52.94;101976.59;4872838;28;97399;-47
2022/04/27 01:55:22;;;;;;;5.50;2.20;;;;;;;10.55;52.99;101978.28;4950045;28;101737;-46
2022/04/27 01:57:48;;;;;;;2.80;2.30;;;;;;;10.55;53.06;101989.28;4945754;28;97702;-47
2022/04/27 02:00:15;;;;;;;3.57;1.90;;;;;;;10.55;53.16;101992.03;4910001;28;96860;-46
2022/04/27 02:02:40;;;;;;;3.60;2.10;;;;;;;10.55;53.20;101989.28;4868989;28;96942;-47
2022/04/27 02:05:06;;;;;;;3.77;2.80;;;;;;;10.55;53.29;101996.78;4870485;28;97218;-46
2022/04/27 02:07:31;;;;;;;2.70;2.37;;;;;;;10.53;53.45;101996.47;4867965;28;97442;-47
2022/04/27 02:09:56;;;;;;;3.93;2.63;;;;;;;10.50;53.30;101989.91;4869005;28;118555;-49
2022/04/27 02:12:22;;;;;;;4.00;2.43;;;;;;;10.49;53.39;101991.13;4868763;28;98145;-47
2022/04/27 02:14:47;;;;;;;3.57;2.40;;;;;;;10.48;53.50;101989.59;4869660;28;97852;-46
2022/04/27 02:17:13;;;;;;;3.77;2.70;;;;;;;10.47;53.35;102003.81;4871082;28;124083;-46
2022/04/27 02:19:38;;;;;;;4.80;2.33;;;;;;;10.43;53.51;102003.97;4869635;28;116478;-46
2022/04/27 02:22:04;;;;;;;2.60;2.00;;;;;;;10.40;53.22;102006.84;4873556;28;101971;-47
2022/04/27 02:24:30;;;;;;;2.47;2.27;;;;;;;10.34;53.37;102006.72;4873000;28;97312;-46
2022/04/27 02:26:55;;;;;;;5.67;3.87;;;;;;;10.28;53.33;102005.81;4870255;28;98512;-46
2022/04/27 02:29:22;;;;;;;4.80;3.50;;;;;;;10.22;53.38;102010.34;4871464;28;104538;-46
2022/04/27 02:31:47;;;;;;;7.27;4.40;;;;;;;10.16;53.44;102014.16;4867667;28;97066;-47
2022/04/27 02:34:13;;;;;;;11.03;4.40;;;;;;;10.10;53.51;102008.50;4871391;28;98462;-47
2022/04/27 02:36:38;;;;;;;10.27;4.17;;;;;;;10.06;53.48;102007.88;4868407;28;97327;-47
2022/04/27 02:39:03;;;;;;;5.30;4.03;;;;;;;10.00;53.49;102011.69;4870355;28;116727;-46
2022/04/27 02:41:29;;;;;;;6.67;3.70;;;;;;;9.91;53.48;102011.66;4872617;28;96843;-47
2022/04/27 02:43:55;;;;;;;5.30;3.43;;;;;;;9.86;53.56;102021.25;4869589;28;128734;-47
2022/04/27 02:46:20;;;;;;;4.07;2.90;;;;;;;9.80;53.75;102021.09;4867186;28;102858;-46
2022/04/27 02:54:18;;;;;;;3.47;2.40;;;;;;;9.68;53.86;102032.19;4856079;28;101245;-46
2022/04/27 02:56:44;;;;;;;4.43;2.13;;;;;;;9.65;53.90;102033.09;4867540;28;96907;-47
2022/04/27 02:59:10;;;;;;;5.93;2.33;;;;;;;9.59;53.71;102032.13;4870522;28;96747;-48
2022/04/27 03:01:35;;;;;;;3.53;3.23;;;;;;;9.49;53.37;102042.34;4871314;28;97291;-47
2022/04/27 03:04:00;;;;;;;4.80;2.80;;;;;;;9.34;53.71;102029.59;4872078;28;97474;-47
2022/04/27 03:06:26;;;;;;;4.17;2.83;;;;;;;9.26;53.89;102033.81;4874071;28;96863;-47
2022/04/27 03:08:52;;;;;;;4.80;3.00;;;;;;;9.20;53.96;102038.34;4871563;28;97179;-47
2022/04/27 03:11:17;;;;;;;2.40;2.20;;;;;;;9.19;53.99;102034.09;4869740;28;98935;-47
2022/04/27 03:13:42;;;;;;;2.60;2.40;;;;;;;9.19;54.12;102040.34;4866408;28;122898;-47
2022/04/27 03:16:08;;;;;;;6.20;3.20;;;;;;;9.17;54.05;102042.00;4866376;28;118669;-47
2022/04/27 03:18:33;;;;;;;3.33;3.03;;;;;;;9.13;54.15;102039.38;4867861;28;116980;-47
2022/04/27 03:20:58;;;;;;;8.53;4.10;;;;;;;9.11;53.62;102038.31;4873599;28;110449;-49
2022/04/27 03:23:24;;;;;;;6.80;4.53;;;;;;;9.06;53.96;102042.41;4865279;28;128828;-47
2022/04/27 03:25:49;;;;;;;15.27;5.13;;;;;;;9.05;53.94;102049.09;4872185;28;97393;-47
2022/04/27 03:28:15;;;;;;;9.00;4.47;;;;;;;9.04;54.19;102058.56;4869564;28;96885;-48
2022/04/27 03:30:41;;;;;;;7.90;3.67;;;;;;;9.03;54.13;102057.78;4871363;28;101106;-47
2022/04/27 03:33:06;;;;;;;4.63;3.33;;;;;;;8.98;53.93;102052.84;4873049;28;96889;-47
2022/04/27 03:35:31;;;;;;;3.40;3.10;;;;;;;8.91;54.17;102053.09;4871541;28;97463;-48
2022/04/27 03:37:58;;;;;;;3.43;3.03;;;;;;;8.85;54.17;102051.38;4858000;28;97966;-48
2022/04/27 03:40:24;;;;;;;3.43;2.43;;;;;;;8.82;54.36;102046.81;4870091;28;96838;-48
2022/04/27 03:42:49;;;;;;;7.33;3.30;;;;;;;8.79;54.40;102059.44;4871255;28;97295;-47
2022/04/27 03:45:15;;;;;;;3.23;2.63;;;;;;;8.77;54.41;102053.63;4861392;28;97063;-47
2022/04/27 03:47:40;;;;;;;5.53;3.07;;;;;;;8.78;54.41;102059.88;4871190;28;97232;-47
2022/04/27 03:50:06;;;;;;;3.40;3.10;;;;;;;8.76;54.50;102056.78;4866027;28;97543;-48
2022/04/27 03:52:31;;;;;;;4.93;3.07;;;;;;;8.76;54.45;102065.03;4868203;28;97007;-48
2022/04/27 03:55:00;;;;;;;11.00;5.50;;;;;;;8.79;54.65;102064.13;4872846;28;97751;-52
2022/04/27 03:57:27;;;;;;;11.50;5.70;;;;;;;8.78;54.58;102068.13;4866524;28;96988;-47
2022/04/27 03:59:52;;;;;;;17.13;7.17;;;;;;;8.78;54.33;102063.38;4864069;28;97348;-47
2022/04/27 04:02:18;;;;;;;22.53;8.47;;;;;;;8.76;54.28;102065.03;4863877;28;101528;-47
2022/04/27 04:04:43;;;;;;;16.83;8.97;;;;;;;8.72;54.47;102067.13;4861950;28;97250;-47
2022/04/27 04:07:08;;;;;;;16.73;7.87;;;;;;;8.70;54.35;102069.56;4870549;28;114845;-47
2022/04/27 04:09:34;;;;;;;10.80;6.30;;;;;;;8.62;54.50;102074.53;4870498;28;115468;-48
2022/04/27 04:11:59;;;;;;;8.60;5.40;;;;;;;8.56;54.26;102079.03;4880700;28;97175;-48
2022/04/27 04:14:24;;;;;;;6.97;4.67;;;;;;;8.55;54.57;102079.47;4873563;28;124642;-47
2022/04/27 04:16:49;;;;;;;10.63;5.00;;;;;;;8.54;54.74;102083.44;4865690;28;116943;-47
2022/04/27 04:19:15;;;;;;;14.03;6.60;;;;;;;8.53;54.67;102085.41;4862440;28;96922;-47
2022/04/27 04:21:40;;;;;;;9.13;6.03;;;;;;;8.54;54.78;102094.41;4866098;28;97496;-48
2022/04/27 04:24:06;;;;;;;7.20;4.80;;;;;;;8.55;55.01;102107.69;4836104;28;127355;-47
2022/04/27 04:29:15;;;;;;;4.23;3.87;;;;;;;8.56;54.77;102106.47;4865293;28;96929;-47
2022/04/27 04:31:40;;;;;;;4.10;3.47;;;;;;;8.54;54.55;102108.13;4862675;28;127147;-47
2022/04/27 04:34:05;;;;;;;3.97;3.57;;;;;;;8.51;54.82;102109.78;4862207;28;120737;-46
2022/04/27 04:36:30;;;;;;;4.00;3.30;;;;;;;8.47;54.67;102109.13;4859505;28;116853;-46
2022/04/27 04:38:57;;;;;;;4.30;3.60;;;;;;;8.46;54.82;102113.06;4858395;28;117366;-47
2022/04/27 04:41:22;;;;;;;5.63;3.57;;;;;;;8.43;54.92;102113.94;4853753;28;98864;-47
2022/04/27 04:43:48;;;;;;;3.80;3.37;;;;;;;8.40;54.96;102116.81;4862633;28;97034;-48
2022/04/27 04:46:13;;;;;;;6.77;4.63;;;;;;;8.40;55.06;102117.59;4861969;28;116619;-47
2022/04/27 04:48:38;;;;;;;3.77;3.43;;;;;;;8.40;55.00;102117.59;4864075;28;96845;-47
2022/04/27 04:51:04;;;;;;;5.53;3.80;;;;;;;8.42;54.66;102117.13;4866422;28;97439;-47
2022/04/27 04:53:29;;;;;;;6.07;3.80;;;;;;;8.38;54.59;102128.22;4863093;28;98390;-47
2022/04/27 04:55:55;;;;;;;8.67;5.23;;;;;;;8.36;54.54;102125.16;4863879;28;97120;-49
2022/04/27 04:58:20;;;;;;;10.63;5.67;;;;;;;8.34;55.00;102122.09;4859600;28;96829;-47
2022/04/27 05:00:48;;;;;;;8.57;4.93;;;;;;;8.37;55.05;102123.16;4867104;28;97817;-47
2022/04/27 05:03:13;;;;;;;6.40;4.50;;;;;;;8.39;55.27;102131.75;4863195;28;97319;-47
2022/04/27 05:05:40;;;;;;;9.60;4.80;;;;;;;8.39;55.02;102131.75;4867711;28;96810;-47
2022/04/27 05:08:07;;;;;;;7.23;5.27;;;;;;;8.42;55.03;102134.38;4867100;28;97358;-47
2022/04/27 05:10:33;;;;;;;8.77;4.73;;;;;;;8.47;54.94;102141.28;4869739;28;97992;-53
2022/04/27 05:12:59;;;;;;;8.80;5.90;;;;;;;8.47;55.16;102142.03;4863664;28;97107;-47
2022/04/27 05:15:24;;;;;;;21.57;10.63;;;;;;;8.50;55.17;102143.88;4867727;28;97108;-47
2022/04/27 05:17:49;;;;;;;26.17;12.50;;;;;;;8.52;55.09;102154.44;4866174;28;96984;-47
2022/04/27 05:20:14;;;;;;;28.30;12.70;;;;;;;8.56;55.36;102163.31;4860451;28;97483;-48
2022/04/27 05:22:40;;;;;;;29.63;11.60;;;;;;;8.61;55.21;102169.00;4861766;28;127993;-47
2022/04/27 05:25:07;;;;;;;26.20;11.63;;;;;;;8.65;55.28;102157.94;4861990;28;97284;-47
2022/04/27 05:27:32;;;;;;;28.50;13.70;;;;;;;8.71;55.22;102164.38;4864214;28;97323;-47
2022/04/27 05:32:43;;;;;;;33.70;16.13;;;;;;;8.78;55.01;102175.88;4867710;28;96928;-47
2022/04/27 05:35:08;;;;;;;27.70;13.10;;;;;;;8.81;55.21;102175.00;4864574;28;97194;-47
2022/04/27 05:37:34;;;;;;;19.70;11.63;;;;;;;8.86;55.39;102171.72;4868732;28;97671;-48
2022/04/27 05:39:59;;;;;;;11.90;8.80;;;;;;;8.93;55.22;102182.41;4865139;28;124503;-48
2022/04/27 05:42:24;;;;;;;12.00;7.70;;;;;;;8.97;55.23;102177.59;4862179;28;127097;-47
2022/04/27 05:44:50;;;;;;;8.83;6.73;;;;;;;9.07;55.28;102179.22;4863811;28;96896;-48
2022/04/27 05:47:15;;;;;;;8.20;6.10;;;;;;;9.13;55.26;102184.88;4860555;28;97269;-46
2022/04/27 05:49:41;;;;;;;7.57;6.27;;;;;;;9.20;55.36;102181.13;4862833;28;97496;-46
2022/04/27 05:52:06;;;;;;;6.17;5.60;;;;;;;9.24;55.43;102177.06;4858944;28;125006;-49
2022/04/27 05:54:31;;;;;;;7.50;5.40;;;;;;;9.33;55.78;102184.59;4869106;28;96771;-46
2022/04/27 05:56:57;;;;;;;6.33;4.87;;;;;;;9.41;55.45;102178.44;4861534;28;97748;-46
2022/04/27 05:59:22;;;;;;;7.27;4.77;;;;;;;9.47;55.35;102197.84;4863435;28;124764;-47
2022/04/27 06:01:47;;;;;;;6.80;4.63;;;;;;;9.59;55.80;102191.50;4857471;28;127349;-46
2022/04/27 06:04:13;;;;;;;7.33;4.43;;;;;;;9.67;55.30;102193.56;4838647;28;100823;-47
2022/04/27 06:06:38;;;;;;;6.33;4.30;;;;;;;9.81;55.56;102192.25;4859731;28;97017;-46
2022/04/27 06:09:04;;;;;;;4.97;4.33;;;;;;;9.96;55.48;102196.00;4853854;28;97492;-46
2022/04/27 06:11:30;;;;;;;4.20;3.90;;;;;;;10.05;55.21;102204.31;4862185;28;100511;-47
2022/04/27 06:13:55;;;;;;;4.60;4.10;;;;;;;10.21;55.54;102203.34;4854209;28;97232;-46
2022/04/27 06:16:23;;;;;;;6.10;4.50;;;;;;;10.41;55.19;102196.25;4835322;28;97233;-45
2022/04/27 06:18:48;;;;;;;5.87;3.83;;;;;;;10.59;54.92;102203.03;4842451;28;97218;-48
2022/04/27 06:21:13;;;;;;;6.03;4.27;;;;;;;10.65;55.03;102204.75;4857615;28;97157;-48
2022/04/27 06:23:39;;;;;;;5.47;3.97;;;;;;;10.72;54.69;102218.22;4856847;28;96829;-48
2022/04/27 06:26:08;;;;;;;5.73;3.70;;;;;;;10.78;54.86;102210.13;4847022;28;97223;-47
2022/04/27 06:28:34;;;;;;;5.60;4.30;;;;;;;10.95;54.93;102212.13;4849001;28;98269;-50
2022/04/27 06:31:00;;;;;;;4.60;4.20;;;;;;;11.04;54.65;102216.91;4836753;28;97015;-47
2022/04/27 06:33:25;;;;;;;6.10;4.00;;;;;;;11.11;54.62;102219.34;4839786;28;97326;-47
2022/04/27 06:35:51;;;;;;;3.50;3.20;;;;;;;11.21;54.43;102216.16;4865099;28;96904;-47
2022/04/27 06:38:16;;;;;;;4.23;3.57;;;;;;;11.31;54.47;102225.19;4865781;28;97531;-48
2022/04/27 06:40:42;;;;;;;3.43;3.13;;;;;;;11.41;54.60;102221.19;4867448;28;97262;-47
2022/04/27 06:43:07;;;;;;;4.37;3.13;;;;;;;11.63;54.47;102221.03;4865631;28;97174;-45
2022/04/27 06:45:36;;;;;;;5.57;3.20;;;;;;;11.87;54.42;102231.00;4864388;28;96738;-45
2022/04/27 06:48:04;;;;;;;6.63;3.13;;;;;;;12.05;54.05;102227.44;4865113;28;98594;-46
2022/04/27 06:50:30;;;;;;;3.80;2.80;;;;;;;12.20;53.89;102233.03;4860549;28;97187;-45
2022/04/27 06:52:59;;;;;;;5.70;2.93;;;;;;;12.27;53.61;102232.72;4865972;28;96842;-46
2022/04/27 06:55:25;;;;;;;3.53;2.77;;;;;;;12.26;53.63;102236.69;4863062;28;97218;-45
2022/04/27 06:57:50;;;;;;;8.43;2.90;;;;;;;12.31;53.94;102245.13;4862190;28;96775;-45
2022/04/27 07:00:16;;;;;;;3.23;2.80;;;;;;;12.38;53.70;102238.50;4866019;28;97362;-44
2022/04/27 07:02:41;;;;;;;6.37;2.93;;;;;;;12.55;53.85;102245.19;4868503;28;96819;-46
2022/04/27 07:05:09;;;;;;;3.13;2.47;;;;;;;12.78;53.64;102249.97;4865674;28;96965;-46
2022/04/27 07:07:35;;;;;;;4.10;2.70;;;;;;;13.09;53.46;102249.66;4859263;28;97081;-46
2022/04/27 07:10:01;;;;;;;3.50;2.67;;;;;;;13.32;53.08;102249.63;4863838;28;97328;-46
2022/04/27 07:12:26;;;;;;;2.40;1.90;;;;;;;13.45;52.89;102246.66;4863891;28;96614;-46
2022/04/27 07:14:52;;;;;;;4.40;2.83;;;;;;;13.53;52.63;102253.34;4858515;28;115996;-44
2022/04/27 07:17:18;;;;;;;4.30;2.70;;;;;;;13.50;52.22;102255.03;4862797;28;99812;-46
2022/04/27 07:19:43;;;;;;;2.87;2.17;;;;;;;13.50;52.32;102266.09;4865625;28;97442;-43
2022/04/27 07:22:10;;;;;;;4.60;2.10;;;;;;;13.48;52.21;102260.28;4865756;28;97011;-43
2022/04/27 07:24:36;;;;;;;2.93;2.30;;;;;;;13.58;52.13;102262.97;4865738;28;97183;-43
2022/04/27 07:27:01;;;;;;;2.10;2.00;;;;;;;13.70;52.12;102273.00;4866240;28;97595;-45
2022/04/27 07:29:26;;;;;;;5.20;2.27;;;;;;;13.86;52.00;102283.63;4859326;28;97109;-46
2022/04/27 07:31:52;;;;;;;3.33;2.07;;;;;;;13.98;51.87;102269.50;4862168;28;96998;-45
2022/04/27 07:34:17;;;;;;;3.70;2.30;;;;;;;14.12;51.64;102273.50;4859799;28;115543;-45
2022/04/27 07:36:43;;;;;;;3.70;2.40;;;;;;;14.25;51.63;102274.00;4861741;28;117956;-45
2022/04/27 07:39:08;;;;;;;2.13;1.83;;;;;;;14.40;51.64;102285.06;4857018;28;97204;-46
2022/04/27 07:41:34;;;;;;;3.57;2.20;;;;;;;14.48;51.43;102286.97;4860373;28;97143;-45
2022/04/27 07:44:00;;;;;;;3.07;1.97;;;;;;;14.53;51.31;102288.31;4864263;28;96949;-46
2022/04/27 07:46:25;;;;;;;1.93;1.80;;;;;;;14.67;51.12;102287.53;4862500;28;97283;-46
2022/04/27 07:48:51;;;;;;;3.03;1.90;;;;;;;14.78;51.09;102280.16;4863345;28;97514;-46
2022/04/27 07:51:17;;;;;;;4.07;2.10;;;;;;;14.93;50.84;102278.09;4855512;28;97301;-48
2022/04/27 07:53:42;;;;;;;3.60;2.23;;;;;;;15.06;50.48;102286.06;4869200;28;96937;-46
2022/04/27 07:56:08;;;;;;;4.30;2.40;;;;;;;15.10;50.29;102285.84;4859633;28;114399;-46
2022/04/27 07:58:34;;;;;;;2.90;2.60;;;;;;;15.01;50.04;102290.28;4860784;28;97448;-46
2022/04/27 08:01:00;;;;;;;3.17;1.90;;;;;;;15.00;50.13;102296.34;4859410;28;96964;-45
2022/04/27 08:03:25;;;;;;;2.43;2.23;;;;;;;14.97;50.20;102298.06;4860479;28;96997;-46
2022/04/27 08:05:51;;;;;;;4.20;2.77;;;;;;;15.01;49.88;102298.59;4860459;28;102198;-46
2022/04/27 08:08:16;;;;;;;9.80;3.40;;;;;;;14.90;49.88;102304.00;4859478;28;117417;-46
2022/04/27 08:10:41;;;;;;;3.30;3.10;;;;;;;14.70;49.98;102306.72;4864031;28;116993;-46
2022/04/27 08:13:06;;;;;;;4.83;2.60;;;;;;;14.82;50.34;102315.97;4862551;28;97455;-46
2022/04/27 08:15:32;;;;;;;5.47;3.47;;;;;;;14.67;49.76;102310.47;4863778;28;109297;-47
2022/04/27 08:17:59;;;;;;;8.20;3.97;;;;;;;14.50;50.17;102312.22;4861622;28;104278;-46
2022/04/27 08:23:11;;;;;;;4.40;3.37;;;;;;;14.68;50.18;102316.75;4863310;28;97158;-46
2022/04/27 08:25:37;;;;;;;2.90;2.70;;;;;;;14.86;50.37;102305.44;4866077;28;96876;-45
2022/04/27 08:28:06;;;;;;;3.93;2.60;;;;;;;15.08;49.77;102302.22;4864380;28;97125;-46
2022/04/27 08:30:36;;;;;;;3.67;3.37;;;;;;;15.22;49.51;102318.81;4865863;28;97266;-47
2022/04/27 08:33:04;;;;;;;6.70;2.80;;;;;;;15.50;49.22;102310.88;4866856;28;97182;-46
2022/04/27 08:35:31;;;;;;;3.47;2.50;;;;;;;15.64;48.90;102316.31;4864797;28;97607;-46
2022/04/27 08:37:56;;;;;;;5.10;2.60;;;;;;;15.66;48.72;102315.84;4859480;28;97306;-46
2022/04/27 08:40:22;;;;;;;3.50;2.60;;;;;;;15.81;48.98;102310.97;4865591;28;97002;-46
2022/04/27 08:42:49;;;;;;;2.37;2.00;;;;;;;16.00;48.76;102312.19;4863522;28;96829;-47
2022/04/27 08:45:16;;;;;;;2.50;2.27;;;;;;;16.09;48.38;102314.03;4862571;28;97576;-46
2022/04/27 08:47:43;;;;;;;3.20;2.17;;;;;;;16.24;48.07;102315.44;4864561;28;97317;-47
2022/04/27 08:50:17;;;;;;;6.80;2.80;;;;;;;16.20;47.04;102314.91;4868107;28;96753;-47
2022/04/27 08:52:43;;;;;;;7.03;2.60;;;;;;;16.29;47.85;102319.53;4869194;28;96788;-46
2022/04/27 08:55:09;;;;;;;2.50;2.30;;;;;;;16.44;47.84;102317.38;4866797;28;98589;-46
2022/04/27 08:57:35;;;;;;;2.50;2.30;;;;;;;16.59;47.72;102314.50;4867239;28;96871;-46
2022/04/27 09:00:01;;;;;;;5.20;2.60;;;;;;;16.69;47.66;102318.59;4864401;28;97067;-46
2022/04/27 09:02:27;;;;;;;3.90;2.73;;;;;;;16.81;47.13;102318.19;4860408;28;97248;-46
2022/04/27 09:05:16;;;;;;;8.00;2.90;;;;;;;16.93;46.66;102319.00;4862605;28;97318;-46
2022/04/27 09:07:43;;;;;;;2.40;2.20;;;;;;;17.11;47.26;102313.81;4860210;28;96934;-46
2022/04/27 09:10:13;;;;;;;5.10;2.90;;;;;;;17.25;47.14;102317.69;4862808;28;97179;-47
2022/04/27 09:12:45;;;;;;;12.20;3.07;;;;;;;17.43;46.48;102322.09;4867383;28;96814;-47
2022/04/27 09:15:12;;;;;;;2.53;2.33;;;;;;;17.59;46.89;102315.81;4868510;28;97005;-46
2022/04/27 09:23:37;;;;;;;2.03;1.90;;;;;;;17.99;44.38;102321.00;4860207;28;97286;-47
2022/04/27 09:26:15;;;;;;;2.40;2.20;;;;;;;18.10;44.80;102314.69;4857096;28;100521;-46
2022/04/27 09:28:40;;;;;;;2.27;2.10;;;;;;;18.16;45.48;102321.78;4861205;28;100340;-50
2022/04/27 09:31:05;;;;;;;5.00;1.87;;;;;;;18.29;45.62;102316.47;4864725;28;116562;-46
2022/04/27 09:33:35;;;;;;;2.03;1.93;;;;;;;18.37;44.03;102325.84;4864456;28;97133;-47
2022/04/27 09:36:23;;;;;;;3.33;1.80;;;;;;;18.34;44.72;102326.13;4867124;28;97184;-47
2022/04/27 09:38:52;;;;;;;2.10;2.00;;;;;;;18.43;45.04;102323.84;4861528;28;100364;-46
2022/04/27 09:41:37;;;;;;;4.87;2.17;;;;;;;18.54;43.46;102328.69;4855764;28;96991;-45
2022/04/27 09:44:03;;;;;;;3.33;2.00;;;;;;;18.61;45.01;102322.56;4856747;28;96972;-47
2022/04/27 09:46:28;;;;;;;2.40;2.00;;;;;;;18.69;44.83;102331.97;4856306;28;96866;-47
2022/04/27 09:49:12;;;;;;;2.50;2.00;;;;;;;18.79;43.77;102327.63;4860289;28;127820;-47
2022/04/27 09:51:47;;;;;;;3.00;1.90;;;;;;;18.95;43.67;102326.88;4863336;28;96740;-46
2022/04/27 09:54:17;;;;;;;3.17;2.23;;;;;;;19.08;43.99;102335.44;4864956;28;96959;-46
2022/04/27 09:56:43;;;;;;;4.23;2.00;;;;;;;19.09;44.19;102325.78;4862381;28;97361;-46
2022/04/27 09:59:10;;;;;;;3.43;2.37;;;;;;;19.03;44.07;102330.63;4857295;28;96947;-47
2022/04/27 10:01:37;;;;;;;2.37;2.20;;;;;;;19.07;44.19;102322.00;4861213;28;97063;-47
2022/04/27 10:04:06;;;;;;;3.33;2.20;;;;;;;19.13;44.06;102325.56;4858603;28;97241;-47
2022/04/27 10:06:33;;;;;;;2.70;2.07;;;;;;;19.22;44.41;102326.00;4858575;28;96798;-47
2022/04/27 10:08:59;;;;;;;2.37;1.83;;;;;;;19.26;44.00;102320.91;4862019;28;96968;-45
2022/04/27 10:11:27;;;;;;;3.63;2.47;;;;;;;19.15;42.84;102323.78;4855913;28;96747;-47
2022/04/27 10:13:54;;;;;;;3.03;2.60;;;;;;;18.96;42.93;102319.25;4864010;28;97401;-46
2022/04/27 10:16:21;;;;;;;2.53;2.33;;;;;;;18.90;43.43;102321.28;4860985;28;97036;-47
2022/04/27 10:18:46;;;;;;;2.97;2.40;;;;;;;19.03;43.62;102313.91;4867342;28;99451;-47
2022/04/27 10:21:12;;;;;;;3.73;2.23;;;;;;;19.20;43.51;102317.41;4862172;28;97920;-47
2022/04/27 10:23:44;;;;;;;2.70;2.03;;;;;;;19.40;42.69;102319.13;4863287;28;97095;-47
2022/04/27 10:26:14;;;;;;;2.33;1.90;;;;;;;19.48;42.97;102319.38;4858157;28;98718;-47
2022/04/27 10:28:48;;;;;;;1.97;1.87;;;;;;;19.53;40.34;102310.94;4859737;28;96873;-47
2022/04/27 10:31:13;;;;;;;4.20;2.67;;;;;;;19.16;42.34;102322.47;4865345;28;96685;-47
2022/04/27 10:33:55;;;;;;;3.03;2.63;;;;;;;19.02;42.35;102311.63;4867391;28;97019;-46
2022/04/27 10:36:30;;;;;;;2.10;2.00;;;;;;;19.16;42.89;102308.53;4862265;28;97543;-47
2022/04/27 10:39:16;;;;;;;2.20;2.00;;;;;;;19.51;41.73;102301.56;4864326;28;96726;-47
2022/04/27 10:41:47;;;;;;;3.83;2.00;;;;;;;19.78;42.51;102303.47;4866010;28;97161;-46
2022/04/27 10:44:13;;;;;;;2.90;2.20;;;;;;;19.95;42.50;102302.09;4861801;28;96835;-47
2022/04/27 10:46:41;;;;;;;2.53;2.10;;;;;;;20.04;41.90;102301.00;4863791;28;97326;-46
2022/04/27 10:49:26;;;;;;;3.00;2.00;;;;;;;20.11;40.42;102303.25;4864363;28;97479;-46
2022/04/27 10:52:06;;;;;;;2.50;2.00;;;;;;;20.29;40.65;102301.88;4868952;28;96855;-47
2022/04/27 10:54:35;;;;;;;3.33;1.97;;;;;;;20.38;41.27;102301.56;4859962;28;97148;-47
2022/04/27 10:57:29;;;;;;;2.17;1.97;;;;;;;20.28;39.67;102294.75;4863889;28;97613;-47
2022/04/27 11:00:02;;;;;;;3.20;1.60;;;;;;;20.44;40.96;102302.25;4878038;28;119311;-46
2022/04/27 11:02:43;;;;;;;2.03;1.73;;;;;;;20.78;40.42;102293.03;4866134;28;97159;-47
2022/04/27 11:05:11;;;;;;;4.20;1.33;;;;;;;20.79;39.77;102296.59;4863337;28;97465;-48
2022/04/27 11:07:58;;;;;;;3.90;2.10;;;;;;;20.86;39.22;102295.97;4860624;28;111640;-48
2022/04/27 11:10:24;;;;;;;4.80;2.10;;;;;;;20.88;40.23;102288.59;4863968;28;97017;-47
2022/04/27 11:12:55;;;;;;;2.53;2.23;;;;;;;21.07;40.28;102296.31;4868796;28;97060;-47
2022/04/27 11:15:25;;;;;;;2.60;2.37;;;;;;;21.37;39.57;102294.16;4863362;28;97158;-46
2022/04/27 11:18:01;;;;;;;3.47;2.33;;;;;;;21.60;39.07;102298.94;4858702;28;97598;-46
2022/04/27 11:20:27;;;;;;;2.17;2.07;;;;;;;21.71;39.58;102295.22;4865996;28;97418;-47
2022/04/27 11:22:53;;;;;;;2.57;2.47;;;;;;;21.83;39.13;102302.22;4856748;28;96769;-47
2022/04/27 11:25:32;;;;;;;4.07;2.40;;;;;;;22.02;37.82;102304.97;4869797;28;96723;-47
2022/04/27 11:27:59;;;;;;;2.20;2.00;;;;;;;22.15;39.07;102302.97;4863270;28;102103;-47
2022/04/27 11:30:25;;;;;;;2.43;2.20;;;;;;;22.23;38.57;102303.91;4863010;28;97279;-47
2022/04/27 11:32:51;;;;;;;2.87;2.60;;;;;;;22.30;38.38;102305.31;4864881;28;96727;-46
2022/04/27 11:35:18;;;;;;;3.00;2.43;;;;;;;22.29;38.12;102307.34;4869084;28;99473;-47
2022/04/27 11:37:44;;;;;;;2.87;2.60;;;;;;;22.36;38.31;102298.31;4860907;28;97247;-46
2022/04/27 11:40:15;;;;;;;3.40;2.67;;;;;;;22.42;37.24;102295.41;4869355;28;97474;-46
2022/04/27 11:42:46;;;;;;;5.73;2.43;;;;;;;22.32;37.85;102292.25;4865772;28;96797;-47
2022/04/27 11:45:12;;;;;;;2.03;1.83;;;;;;;22.41;38.13;102296.69;4859809;28;96958;-46
2022/04/27 11:47:37;;;;;;;2.20;2.03;;;;;;;22.54;37.88;102296.72;4867489;28;97425;-46
2022/04/27 11:50:04;;;;;;;2.73;2.50;;;;;;;22.68;37.95;102297.53;4873189;28;97361;-47